Magna, Utah
Current Conditions -  °F | °C
As of 5:53 PM on Friday 31 Oct 2014 (Local Time) from KSLC Reporting Station
Broken Clouds Broken Clouds  
Wind Chill: 73°   Ceiling: 24000
Heat Index: 73°   Visibility: 10mi
Dew Point: 22°   Wind: 15mph
Humidity: 15%   Direction: 180°S
Pressure: 29.82"   Gusts: 22mph
Location:  40.7°N, 112.09°W
Report Text: KSLC 312353Z 18013G19KT 10SM FEW095 FEW140 SCT190 BKN240 23/M06 A2982 RMK AO2 SLP054 SCSL DSNT ALQDS ACSL DSNT NE-S T02281056 10250 20200 58014
Loading
Personal Weather Stations






























Interactive Weather Map
Tropical Storm Tracking
New forecast layout! Learn more

10-Day Weather Forecast

Advertisements
Track Severe Weather on mobile